sensor_id;sensor_type;location;lat;lon;timestamp;P1;durP1;ratioP1;P2;durP2;ratioP2
4001;SDS011;2015;48.670;9.060;2023-06-04T00:00:31;12.03;;;10.93;;
4001;SDS011;2015;48.670;9.060;2023-06-04T00:03:03;11.80;;;10.33;;
4001;SDS011;2015;48.670;9.060;2023-06-04T00:05:35;12.63;;;10.10;;
4001;SDS011;2015;48.670;9.060;2023-06-04T00:08:07;12.00;;;10.27;;
4001;SDS011;2015;48.670;9.060;2023-06-04T00:10:39;11.13;;;10.03;;
4001;SDS011;2015;48.670;9.060;2023-06-04T00:13:11;10.83;;;9.77;;
4001;SDS011;2015;48.670;9.060;2023-06-04T00:15:42;14.50;;;10.43;;
4001;SDS011;2015;48.670;9.060;2023-06-04T00:18:14;10.80;;;9.20;;
4001;SDS011;2015;48.670;9.060;2023-06-04T00:20:46;10.67;;;9.67;;
4001;SDS011;2015;48.670;9.060;2023-06-04T00:23:18;11.85;;;10.68;;
4001;SDS011;2015;48.670;9.060;2023-06-04T00:25:50;14.60;;;11.37;;
4001;SDS011;2015;48.670;9.060;2023-06-04T00:28:22;11.10;;;10.10;;
4001;SDS011;2015;48.670;9.060;2023-06-04T00:30:54;10.77;;;9.87;;
4001;SDS011;2015;48.670;9.060;2023-06-04T00:33:26;11.30;;;10.10;;
4001;SDS011;2015;48.670;9.060;2023-06-04T00:35:57;11.40;;;10.30;;
4001;SDS011;2015;48.670;9.060;2023-06-04T00:38:29;11.73;;;10.60;;
4001;SDS011;2015;48.670;9.060;2023-06-04T00:41:01;13.70;;;11.20;;
4001;SDS011;2015;48.670;9.060;2023-06-04T00:43:33;10.57;;;9.47;;
4001;SDS011;2015;48.670;9.060;2023-06-04T00:46:07;11.83;;;10.70;;
4001;SDS011;2015;48.670;9.060;2023-06-04T00:48:39;11.23;;;10.13;;
4001;SDS011;2015;48.670;9.060;2023-06-04T00:51:14;11.57;;;10.40;;
4001;SDS011;2015;48.670;9.060;2023-06-04T00:53:46;12.30;;;9.90;;
4001;SDS011;2015;48.670;9.060;2023-06-04T00:56:22;10.60;;;9.50;;
4001;SDS011;2015;48.670;9.060;2023-06-04T00:58:54;10.20;;;9.20;;
4001;SDS011;2015;48.670;9.060;2023-06-04T01:01:29;11.00;;;9.30;;
4001;SDS011;2015;48.670;9.060;2023-06-04T01:04:09;9.70;;;8.80;;
4001;SDS011;2015;48.670;9.060;2023-06-04T01:06:49;12.97;;;9.00;;
4001;SDS011;2015;48.670;9.060;2023-06-04T01:09:24;10.33;;;9.23;;
4001;SDS011;2015;48.670;9.060;2023-06-04T01:12:03;9.60;;;8.70;;
4001;SDS011;2015;48.670;9.060;2023-06-04T01:14:35;9.33;;;8.43;;
4001;SDS011;2015;48.670;9.060;2023-06-04T01:22:48;10.00;;;9.20;;
4001;SDS011;2015;48.670;9.060;2023-06-04T01:25:37;9.93;;;9.07;;
4001;SDS011;2015;48.670;9.060;2023-06-04T01:28:11;10.43;;;9.53;;
4001;SDS011;2015;48.670;9.060;2023-06-04T01:30:44;11.10;;;9.23;;
4001;SDS011;2015;48.670;9.060;2023-06-04T01:33:18;10.57;;;8.50;;
4001;SDS011;2015;48.670;9.060;2023-06-04T01:35:50;10.67;;;9.33;;
4001;SDS011;2015;48.670;9.060;2023-06-04T01:38:22;11.03;;;9.03;;
4001;SDS011;2015;48.670;9.060;2023-06-04T01:40:54;10.03;;;9.13;;
4001;SDS011;2015;48.670;9.060;2023-06-04T01:43:28;9.60;;;8.70;;
4001;SDS011;2015;48.670;9.060;2023-06-04T01:46:00;12.50;;;8.97;;
4001;SDS011;2015;48.670;9.060;2023-06-04T01:48:32;10.63;;;8.97;;
4001;SDS011;2015;48.670;9.060;2023-06-04T01:51:04;9.13;;;8.30;;
4001;SDS011;2015;48.670;9.060;2023-06-04T01:53:37;9.70;;;8.83;;
4001;SDS011;2015;48.670;9.060;2023-06-04T01:56:09;8.70;;;7.90;;
4001;SDS011;2015;48.670;9.060;2023-06-04T01:58:42;10.10;;;9.30;;
4001;SDS011;2015;48.670;9.060;2023-06-04T02:01:14;10.20;;;9.20;;
4001;SDS011;2015;48.670;9.060;2023-06-04T02:03:48;9.37;;;8.53;;
4001;SDS011;2015;48.670;9.060;2023-06-04T02:06:20;9.33;;;8.43;;
4001;SDS011;2015;48.670;9.060;2023-06-04T02:08:51;8.67;;;7.97;;
4001;SDS011;2015;48.670;9.060;2023-06-04T02:11:25;9.43;;;8.50;;
4001;SDS011;2015;48.670;9.060;2023-06-04T02:13:57;10.03;;;8.07;;
4001;SDS011;2015;48.670;9.060;2023-06-04T02:16:29;10.27;;;9.37;;
4001;SDS011;2015;48.670;9.060;2023-06-04T02:19:01;9.33;;;8.50;;
4001;SDS011;2015;48.670;9.060;2023-06-04T02:21:34;9.20;;;7.87;;
4001;SDS011;2015;48.670;9.060;2023-06-04T02:24:07;9.10;;;8.30;;
4001;SDS011;2015;48.670;9.060;2023-06-04T02:26:39;10.23;;;9.30;;
4001;SDS011;2015;48.670;9.060;2023-06-04T02:29:10;8.83;;;8.10;;
4001;SDS011;2015;48.670;9.060;2023-06-04T02:31:42;9.38;;;8.00;;
4001;SDS011;2015;48.670;9.060;2023-06-04T02:34:14;9.23;;;8.30;;
4001;SDS011;2015;48.670;9.060;2023-06-04T02:36:46;9.97;;;8.97;;
4001;SDS011;2015;48.670;9.060;2023-06-04T02:39:19;8.77;;;7.87;;
4001;SDS011;2015;48.670;9.060;2023-06-04T02:41:51;9.70;;;8.87;;
4001;SDS011;2015;48.670;9.060;2023-06-04T02:44:23;8.47;;;7.77;;
4001;SDS011;2015;48.670;9.060;2023-06-04T02:46:57;9.33;;;8.40;;
4001;SDS011;2015;48.670;9.060;2023-06-04T02:49:29;10.97;;;9.87;;
4001;SDS011;2015;48.670;9.060;2023-06-04T02:52:01;15.67;;;8.53;;
4001;SDS011;2015;48.670;9.060;2023-06-04T02:54:33;8.70;;;7.80;;
4001;SDS011;2015;48.670;9.060;2023-06-04T02:57:05;7.70;;;7.07;;
4001;SDS011;2015;48.670;9.060;2023-06-04T02:59:37;8.53;;;7.80;;
4001;SDS011;2015;48.670;9.060;2023-06-04T03:02:09;7.67;;;6.97;;
4001;SDS011;2015;48.670;9.060;2023-06-04T03:04:42;8.43;;;7.63;;
4001;SDS011;2015;48.670;9.060;2023-06-04T03:07:15;8.20;;;7.10;;
4001;SDS011;2015;48.670;9.060;2023-06-04T03:09:51;9.03;;;7.77;;
4001;SDS011;2015;48.670;9.060;2023-06-04T03:12:23;9.60;;;7.23;;
4001;SDS011;2015;48.670;9.060;2023-06-04T03:14:55;8.57;;;7.87;;
4001;SDS011;2015;48.670;9.060;2023-06-04T03:17:27;7.80;;;7.17;;
4001;SDS011;2015;48.670;9.060;2023-06-04T03:19:59;10.13;;;8.13;;
4001;SDS011;2015;48.670;9.060;2023-06-04T03:22:31;7.93;;;6.70;;
4001;SDS011;2015;48.670;9.060;2023-06-04T03:25:05;7.90;;;7.20;;
4001;SDS011;2015;48.670;9.060;2023-06-04T03:27:37;7.37;;;6.87;;
4001;SDS011;2015;48.670;9.060;2023-06-04T03:30:09;8.57;;;7.87;;
4001;SDS011;2015;48.670;9.060;2023-06-04T03:32:41;7.57;;;6.80;;
4001;SDS011;2015;48.670;9.060;2023-06-04T03:35:15;8.73;;;7.82;;
4001;SDS011;2015;48.670;9.060;2023-06-04T03:37:47;8.60;;;7.90;;
4001;SDS011;2015;48.670;9.060;2023-06-04T03:40:19;8.50;;;7.60;;
4001;SDS011;2015;48.670;9.060;2023-06-04T03:42:51;9.57;;;8.67;;
4001;SDS011;2015;48.670;9.060;2023-06-04T03:45:22;8.50;;;7.80;;
4001;SDS011;2015;48.670;9.060;2023-06-04T03:47:54;8.10;;;7.30;;
4001;SDS011;2015;48.670;9.060;2023-06-04T03:50:26;8.27;;;7.67;;
4001;SDS011;2015;48.670;9.060;2023-06-04T03:52:59;9.77;;;8.77;;
4001;SDS011;2015;48.670;9.060;2023-06-04T03:55:31;8.77;;;7.97;;
4001;SDS011;2015;48.670;9.060;2023-06-04T03:58:06;9.57;;;8.37;;
4001;SDS011;2015;48.670;9.060;2023-06-04T04:00:40;7.60;;;6.90;;
4001;SDS011;2015;48.670;9.060;2023-06-04T04:03:12;9.53;;;8.53;;
4001;SDS011;2015;48.670;9.060;2023-06-04T04:05:44;10.50;;;8.63;;
4001;SDS011;2015;48.670;9.060;2023-06-04T04:08:16;9.10;;;7.23;;
4001;SDS011;2015;48.670;9.060;2023-06-04T04:10:48;8.50;;;7.40;;
4001;SDS011;2015;48.670;9.060;2023-06-04T04:13:20;8.93;;;8.17;;
4001;SDS011;2015;48.670;9.060;2023-06-04T04:15:51;8.50;;;7.80;;
4001;SDS011;2015;48.670;9.060;2023-06-04T04:18:23;8.40;;;7.70;;
4001;SDS011;2015;48.670;9.060;2023-06-04T04:20:56;10.30;;;9.23;;
4001;SDS011;2015;48.670;9.060;2023-06-04T04:23:29;8.38;;;7.30;;
4001;SDS011;2015;48.670;9.060;2023-06-04T04:26:01;7.67;;;6.93;;
4001;SDS011;2015;48.670;9.060;2023-06-04T04:28:33;8.50;;;7.27;;
4001;SDS011;2015;48.670;9.060;2023-06-04T04:31:05;7.10;;;6.37;;
4001;SDS011;2015;48.670;9.060;2023-06-04T04:33:38;9.20;;;6.43;;
4001;SDS011;2015;48.670;9.060;2023-06-04T04:36:11;8.37;;;7.50;;
4001;SDS011;2015;48.670;9.060;2023-06-04T04:38:45;8.60;;;6.80;;
4001;SDS011;2015;48.670;9.060;2023-06-04T04:41:17;7.53;;;6.90;;
4001;SDS011;2015;48.670;9.060;2023-06-04T04:43:49;7.93;;;6.80;;
4001;SDS011;2015;48.670;9.060;2023-06-04T04:46:20;8.40;;;6.70;;
4001;SDS011;2015;48.670;9.060;2023-06-04T04:48:52;7.53;;;6.90;;
4001;SDS011;2015;48.670;9.060;2023-06-04T04:51:24;7.03;;;6.00;;
4001;SDS011;2015;48.670;9.060;2023-06-04T04:53:57;9.03;;;5.67;;
4001;SDS011;2015;48.670;9.060;2023-06-04T04:56:34;6.22;;;5.70;;
4001;SDS011;2015;48.670;9.060;2023-06-04T04:59:06;7.20;;;6.50;;
4001;SDS011;2015;48.670;9.060;2023-06-04T05:01:38;7.43;;;6.77;;
4001;SDS011;2015;48.670;9.060;2023-06-04T05:04:10;6.43;;;5.73;;
4001;SDS011;2015;48.670;9.060;2023-06-04T05:06:42;7.67;;;5.93;;
4001;SDS011;2015;48.670;9.060;2023-06-04T05:09:14;5.90;;;5.43;;
4001;SDS011;2015;48.670;9.060;2023-06-04T05:11:46;6.72;;;5.50;;
4001;SDS011;2015;48.670;9.060;2023-06-04T05:14:18;5.90;;;5.40;;
4001;SDS011;2015;48.670;9.060;2023-06-04T05:16:50;6.10;;;5.50;;
4001;SDS011;2015;48.670;9.060;2023-06-04T05:19:22;5.90;;;5.50;;
4001;SDS011;2015;48.670;9.060;2023-06-04T05:21:55;5.23;;;4.83;;
4001;SDS011;2015;48.670;9.060;2023-06-04T05:24:27;6.03;;;5.60;;
4001;SDS011;2015;48.670;9.060;2023-06-04T05:27:00;5.75;;;5.13;;
4001;SDS011;2015;48.670;9.060;2023-06-04T05:29:31;5.43;;;4.90;;
4001;SDS011;2015;48.670;9.060;2023-06-04T05:32:03;5.70;;;5.30;;
4001;SDS011;2015;48.670;9.060;2023-06-04T05:34:36;5.50;;;4.80;;
4001;SDS011;2015;48.670;9.060;2023-06-04T05:37:08;6.20;;;5.50;;
4001;SDS011;2015;48.670;9.060;2023-06-04T05:39:42;5.27;;;4.87;;
4001;SDS011;2015;48.670;9.060;2023-06-04T05:42:14;5.20;;;4.80;;
4001;SDS011;2015;48.670;9.060;2023-06-04T05:44:46;6.03;;;5.17;;
4001;SDS011;2015;48.670;9.060;2023-06-04T05:47:18;6.87;;;6.27;;
4001;SDS011;2015;48.670;9.060;2023-06-04T05:49:50;7.00;;;5.63;;
4001;SDS011;2015;48.670;9.060;2023-06-04T05:52:22;5.00;;;4.60;;
4001;SDS011;2015;48.670;9.060;2023-06-04T05:54:54;6.20;;;5.60;;
4001;SDS011;2015;48.670;9.060;2023-06-04T05:57:25;9.40;;;4.97;;
4001;SDS011;2015;48.670;9.060;2023-06-04T05:59:57;5.18;;;4.68;;
4001;SDS011;2015;48.670;9.060;2023-06-04T06:02:29;6.33;;;5.83;;
4001;SDS011;2015;48.670;9.060;2023-06-04T06:05:03;5.40;;;5.10;;
4001;SDS011;2015;48.670;9.060;2023-06-04T06:07:36;5.87;;;5.47;;
4001;SDS011;2015;48.670;9.060;2023-06-04T06:10:08;5.97;;;5.47;;
4001;SDS011;2015;48.670;9.060;2023-06-04T06:12:40;5.10;;;4.70;;
4001;SDS011;2015;48.670;9.060;2023-06-04T06:15:12;5.10;;;4.60;;
4001;SDS011;2015;48.670;9.060;2023-06-04T06:17:44;4.67;;;4.23;;
4001;SDS011;2015;48.670;9.060;2023-06-04T06:20:17;6.00;;;5.50;;
4001;SDS011;2015;48.670;9.060;2023-06-04T06:22:49;5.30;;;4.80;;
4001;SDS011;2015;48.670;9.060;2023-06-04T06:25:21;6.30;;;5.80;;
4001;SDS011;2015;48.670;9.060;2023-06-04T06:27:53;5.83;;;5.30;;
4001;SDS011;2015;48.670;9.060;2023-06-04T06:30:26;4.90;;;4.60;;
4001;SDS011;2015;48.670;9.060;2023-06-04T06:32:57;6.40;;;4.53;;
4001;SDS011;2015;48.670;9.060;2023-06-04T06:35:29;5.10;;;4.70;;
4001;SDS011;2015;48.670;9.060;2023-06-04T06:38:01;8.00;;;5.53;;
4001;SDS011;2015;48.670;9.060;2023-06-04T06:40:33;7.70;;;5.20;;
4001;SDS011;2015;48.670;9.060;2023-06-04T06:43:05;5.20;;;4.83;;
4001;SDS011;2015;48.670;9.060;2023-06-04T06:45:37;4.70;;;4.33;;
4001;SDS011;2015;48.670;9.060;2023-06-04T06:48:08;5.03;;;4.63;;
4001;SDS011;2015;48.670;9.060;2023-06-04T06:50:40;6.07;;;5.07;;
4001;SDS011;2015;48.670;9.060;2023-06-04T06:53:12;5.33;;;4.20;;
4001;SDS011;2015;48.670;9.060;2023-06-04T06:55:44;5.43;;;4.93;;
4001;SDS011;2015;48.670;9.060;2023-06-04T06:58:16;5.43;;;4.67;;
4001;SDS011;2015;48.670;9.060;2023-06-04T07:00:48;4.37;;;4.07;;
4001;SDS011;2015;48.670;9.060;2023-06-04T07:03:20;4.50;;;4.20;;
4001;SDS011;2015;48.670;9.060;2023-06-04T07:05:53;5.83;;;5.40;;
4001;SDS011;2015;48.670;9.060;2023-06-04T07:08:25;4.73;;;4.27;;
4001;SDS011;2015;48.670;9.060;2023-06-04T07:10:57;5.10;;;4.63;;
4001;SDS011;2015;48.670;9.060;2023-06-04T07:13:29;4.83;;;4.43;;
4001;SDS011;2015;48.670;9.060;2023-06-04T07:16:03;5.20;;;4.80;;
4001;SDS011;2015;48.670;9.060;2023-06-04T07:18:35;4.97;;;4.57;;
4001;SDS011;2015;48.670;9.060;2023-06-04T07:21:07;6.90;;;4.70;;
4001;SDS011;2015;48.670;9.060;2023-06-04T07:23:39;6.20;;;4.93;;
4001;SDS011;2015;48.670;9.060;2023-06-04T07:26:11;5.00;;;4.60;;
4001;SDS011;2015;48.670;9.060;2023-06-04T07:28:43;6.13;;;5.57;;
4001;SDS011;2015;48.670;9.060;2023-06-04T07:31:16;5.77;;;4.97;;
4001;SDS011;2015;48.670;9.060;2023-06-04T07:33:48;5.37;;;4.97;;
4001;SDS011;2015;48.670;9.060;2023-06-04T07:36:20;6.35;;;4.90;;
4001;SDS011;2015;48.670;9.060;2023-06-04T07:38:52;5.30;;;4.80;;
4001;SDS011;2015;48.670;9.060;2023-06-04T07:41:23;6.13;;;5.57;;
4001;SDS011;2015;48.670;9.060;2023-06-04T07:43:57;4.53;;;4.23;;
4001;SDS011;2015;48.670;9.060;2023-06-04T07:46:28;6.00;;;5.50;;
4001;SDS011;2015;48.670;9.060;2023-06-04T07:49:00;5.40;;;4.90;;
4001;SDS011;2015;48.670;9.060;2023-06-04T07:51:32;5.47;;;5.07;;
4001;SDS011;2015;48.670;9.060;2023-06-04T07:54:04;5.27;;;4.87;;
4001;SDS011;2015;48.670;9.060;2023-06-04T07:56:37;5.10;;;4.80;;
4001;SDS011;2015;48.670;9.060;2023-06-04T07:59:09;4.93;;;4.63;;
4001;SDS011;2015;48.670;9.060;2023-06-04T08:01:41;5.80;;;5.40;;
4001;SDS011;2015;48.670;9.060;2023-06-04T08:04:12;5.10;;;4.70;;
4001;SDS011;2015;48.670;9.060;2023-06-04T08:06:44;6.20;;;5.70;;
4001;SDS011;2015;48.670;9.060;2023-06-04T08:09:18;5.97;;;5.37;;
4001;SDS011;2015;48.670;9.060;2023-06-04T08:11:49;6.33;;;5.73;;
4001;SDS011;2015;48.670;9.060;2023-06-04T08:14:21;5.70;;;4.57;;
4001;SDS011;2015;48.670;9.060;2023-06-04T08:16:54;4.47;;;4.17;;
4001;SDS011;2015;48.670;9.060;2023-06-04T08:19:26;5.37;;;4.97;;
4001;SDS011;2015;48.670;9.060;2023-06-04T08:21:58;5.47;;;5.00;;
4001;SDS011;2015;48.670;9.060;2023-06-04T08:24:29;6.47;;;5.87;;
4001;SDS011;2015;48.670;9.060;2023-06-04T08:27:01;5.27;;;4.97;;
4001;SDS011;2015;48.670;9.060;2023-06-04T08:29:34;5.87;;;5.37;;
4001;SDS011;2015;48.670;9.060;2023-06-04T08:32:07;6.80;;;4.97;;
4001;SDS011;2015;48.670;9.060;2023-06-04T08:34:39;5.37;;;5.07;;
4001;SDS011;2015;48.670;9.060;2023-06-04T08:37:11;5.37;;;4.87;;
4001;SDS011;2015;48.670;9.060;2023-06-04T08:39:43;4.87;;;4.37;;
4001;SDS011;2015;48.670;9.060;2023-06-04T08:42:28;4.88;;;4.57;;
4001;SDS011;2015;48.670;9.060;2023-06-04T08:45:02;5.78;;;5.22;;
4001;SDS011;2015;48.670;9.060;2023-06-04T08:47:35;5.53;;;4.60;;
4001;SDS011;2015;48.670;9.060;2023-06-04T08:50:08;4.88;;;4.57;;
4001;SDS011;2015;48.670;9.060;2023-06-04T08:52:42;5.45;;;4.95;;
4001;SDS011;2015;48.670;9.060;2023-06-04T08:55:14;5.55;;;5.07;;
4001;SDS011;2015;48.670;9.060;2023-06-04T08:57:46;4.65;;;4.40;;
4001;SDS011;2015;48.670;9.060;2023-06-04T09:00:20;4.50;;;4.28;;
4001;SDS011;2015;48.670;9.060;2023-06-04T09:02:53;4.20;;;4.00;;
4001;SDS011;2015;48.670;9.060;2023-06-04T09:05:25;4.50;;;4.20;;
4001;SDS011;2015;48.670;9.060;2023-06-04T09:07:58;4.32;;;4.07;;
4001;SDS011;2015;48.670;9.060;2023-06-04T09:10:32;5.00;;;4.60;;
4001;SDS011;2015;48.670;9.060;2023-06-04T09:13:06;4.90;;;4.68;;
4001;SDS011;2015;48.670;9.060;2023-06-04T09:15:39;4.40;;;4.10;;
4001;SDS011;2015;48.670;9.060;2023-06-04T09:18:11;5.00;;;4.60;;
4001;SDS011;2015;48.670;9.060;2023-06-04T09:20:43;4.80;;;4.53;;
4001;SDS011;2015;48.670;9.060;2023-06-04T09:23:15;5.15;;;4.85;;
4001;SDS011;2015;48.670;9.060;2023-06-04T09:25:48;5.78;;;4.88;;
4001;SDS011;2015;48.670;9.060;2023-06-04T09:28:20;5.10;;;4.25;;
4001;SDS011;2015;48.670;9.060;2023-06-04T09:30:52;4.30;;;4.10;;
4001;SDS011;2015;48.670;9.060;2023-06-04T09:33:25;4.70;;;4.40;;
4001;SDS011;2015;48.670;9.060;2023-06-04T09:35:58;4.47;;;4.18;;
4001;SDS011;2015;48.670;9.060;2023-06-04T09:38:34;6.20;;;4.80;;
4001;SDS011;2015;48.670;9.060;2023-06-04T09:41:16;5.05;;;4.65;;
4001;SDS011;2015;48.670;9.060;2023-06-04T09:43:50;5.18;;;4.80;;
4001;SDS011;2015;48.670;9.060;2023-06-04T09:46:31;5.10;;;4.80;;
4001;SDS011;2015;48.670;9.060;2023-06-04T09:49:04;6.45;;;5.57;;
4001;SDS011;2015;48.670;9.060;2023-06-04T09:51:36;5.18;;;4.72;;
4001;SDS011;2015;48.670;9.060;2023-06-04T09:54:19;6.00;;;5.50;;
4001;SDS011;2015;48.670;9.060;2023-06-04T09:56:51;5.03;;;4.70;;
4001;SDS011;2015;48.670;9.060;2023-06-04T09:59:23;5.17;;;4.70;;
4001;SDS011;2015;48.670;9.060;2023-06-04T10:01:57;6.47;;;5.80;;
4001;SDS011;2015;48.670;9.060;2023-06-04T10:04:30;5.13;;;4.72;;
4001;SDS011;2015;48.670;9.060;2023-06-04T10:07:05;4.70;;;4.40;;
4001;SDS011;2015;48.670;9.060;2023-06-04T10:09:39;6.28;;;5.28;;
4001;SDS011;2015;48.670;9.060;2023-06-04T10:12:16;5.75;;;5.15;;
4001;SDS011;2015;48.670;9.060;2023-06-04T10:15:02;5.30;;;5.00;;
4001;SDS011;2015;48.670;9.060;2023-06-04T10:17:41;5.80;;;5.32;;
4001;SDS011;2015;48.670;9.060;2023-06-04T10:20:13;6.22;;;5.80;;
4001;SDS011;2015;48.670;9.060;2023-06-04T10:22:45;6.75;;;6.22;;
4001;SDS011;2015;48.670;9.060;2023-06-04T10:25:19;6.30;;;5.63;;
4001;SDS011;2015;48.670;9.060;2023-06-04T10:27:52;5.40;;;5.10;;
4001;SDS011;2015;48.670;9.060;2023-06-04T10:30:24;5.93;;;5.40;;
4001;SDS011;2015;48.670;9.060;2023-06-04T10:32:56;6.30;;;5.85;;
4001;SDS011;2015;48.670;9.060;2023-06-04T10:35:30;6.78;;;6.32;;
4001;SDS011;2015;48.670;9.060;2023-06-04T10:38:10;8.88;;;5.70;;
4001;SDS011;2015;48.670;9.060;2023-06-04T10:40:43;6.93;;;6.43;;
4001;SDS011;2015;48.670;9.060;2023-06-04T10:43:15;5.53;;;5.20;;
4001;SDS011;2015;48.670;9.060;2023-06-04T10:45:47;6.65;;;6.25;;
4001;SDS011;2015;48.670;9.060;2023-06-04T10:48:19;6.28;;;5.80;;
4001;SDS011;2015;48.670;9.060;2023-06-04T10:50:51;5.95;;;5.65;;
4001;SDS011;2015;48.670;9.060;2023-06-04T10:53:24;6.43;;;5.85;;
4001;SDS011;2015;48.670;9.060;2023-06-04T10:56:07;6.43;;;5.93;;
4001;SDS011;2015;48.670;9.060;2023-06-04T10:58:39;6.20;;;5.70;;
4001;SDS011;2015;48.670;9.060;2023-06-04T11:01:11;6.88;;;6.47;;
4001;SDS011;2015;48.670;9.060;2023-06-04T11:03:54;6.35;;;6.05;;
4001;SDS011;2015;48.670;9.060;2023-06-04T11:06:26;5.70;;;5.30;;
4001;SDS011;2015;48.670;9.060;2023-06-04T11:09:05;6.00;;;5.60;;
4001;SDS011;2015;48.670;9.060;2023-06-04T11:11:37;6.45;;;6.03;;
4001;SDS011;2015;48.670;9.060;2023-06-04T11:14:09;6.40;;;6.00;;
4001;SDS011;2015;48.670;9.060;2023-06-04T11:16:41;7.15;;;6.47;;
4001;SDS011;2015;48.670;9.060;2023-06-04T11:19:13;5.78;;;5.38;;
4001;SDS011;2015;48.670;9.060;2023-06-04T11:21:45;6.85;;;5.53;;
4001;SDS011;2015;48.670;9.060;2023-06-04T11:24:17;6.65;;;6.25;;
4001;SDS011;2015;48.670;9.060;2023-06-04T11:26:49;6.60;;;6.20;;
4001;SDS011;2015;48.670;9.060;2023-06-04T11:29:40;6.35;;;5.75;;
4001;SDS011;2015;48.670;9.060;2023-06-04T11:32:20;6.50;;;6.20;;
4001;SDS011;2015;48.670;9.060;2023-06-04T11:35:03;6.50;;;6.00;;
4001;SDS011;2015;48.670;9.060;2023-06-04T11:37:36;6.65;;;6.25;;
4001;SDS011;2015;48.670;9.060;2023-06-04T11:40:16;7.68;;;7.07;;
4001;SDS011;2015;48.670;9.060;2023-06-04T11:42:49;7.17;;;6.60;;
4001;SDS011;2015;48.670;9.060;2023-06-04T11:45:21;7.77;;;7.10;;
4001;SDS011;2015;48.670;9.060;2023-06-04T11:47:54;6.87;;;6.17;;
4001;SDS011;2015;48.670;9.060;2023-06-04T11:50:28;6.70;;;6.20;;
4001;SDS011;2015;48.670;9.060;2023-06-04T11:53:00;7.40;;;6.80;;
4001;SDS011;2015;48.670;9.060;2023-06-04T11:55:32;7.20;;;6.70;;
4001;SDS011;2015;48.670;9.060;2023-06-04T11:58:04;6.87;;;6.30;;
4001;SDS011;2015;48.670;9.060;2023-06-04T12:00:36;6.70;;;6.20;;
4001;SDS011;2015;48.670;9.060;2023-06-04T12:03:08;6.77;;;6.20;;
4001;SDS011;2015;48.670;9.060;2023-06-04T12:05:40;7.40;;;6.80;;
4001;SDS011;2015;48.670;9.060;2023-06-04T12:08:12;8.10;;;7.40;;
4001;SDS011;2015;48.670;9.060;2023-06-04T12:10:44;7.10;;;6.50;;
4001;SDS011;2015;48.670;9.060;2023-06-04T12:13:16;7.13;;;6.60;;
4001;SDS011;2015;48.670;9.060;2023-06-04T12:15:52;6.90;;;6.30;;
4001;SDS011;2015;48.670;9.060;2023-06-04T12:18:24;6.37;;;5.90;;
4001;SDS011;2015;48.670;9.060;2023-06-04T12:20:57;7.00;;;6.37;;
4001;SDS011;2015;48.670;9.060;2023-06-04T12:23:28;6.03;;;5.60;;
4001;SDS011;2015;48.670;9.060;2023-06-04T12:26:00;7.23;;;6.23;;
4001;SDS011;2015;48.670;9.060;2023-06-04T12:28:34;6.00;;;5.60;;
4001;SDS011;2015;48.670;9.060;2023-06-04T12:31:15;6.83;;;6.10;;
4001;SDS011;2015;48.670;9.060;2023-06-04T12:33:49;6.70;;;6.20;;
4001;SDS011;2015;48.670;9.060;2023-06-04T12:36:21;6.47;;;5.97;;
4001;SDS011;2015;48.670;9.060;2023-06-04T12:38:53;7.20;;;6.50;;
4001;SDS011;2015;48.670;9.060;2023-06-04T12:41:27;6.67;;;6.27;;
4001;SDS011;2015;48.670;9.060;2023-06-04T12:43:59;7.50;;;6.80;;
4001;SDS011;2015;48.670;9.060;2023-06-04T12:46:32;7.50;;;6.80;;
4001;SDS011;2015;48.670;9.060;2023-06-04T12:49:04;5.93;;;5.53;;
4001;SDS011;2015;48.670;9.060;2023-06-04T12:51:36;7.30;;;6.60;;
4001;SDS011;2015;48.670;9.060;2023-06-04T12:54:09;6.97;;;6.47;;
4001;SDS011;2015;48.670;9.060;2023-06-04T12:56:42;6.50;;;6.00;;
4001;SDS011;2015;48.670;9.060;2023-06-04T12:59:15;7.00;;;6.50;;
4001;SDS011;2015;48.670;9.060;2023-06-04T13:01:47;7.00;;;6.40;;
4001;SDS011;2015;48.670;9.060;2023-06-04T13:04:19;7.80;;;7.03;;
4001;SDS011;2015;48.670;9.060;2023-06-04T13:06:51;6.60;;;6.10;;
4001;SDS011;2015;48.670;9.060;2023-06-04T13:09:26;7.33;;;6.77;;
4001;SDS011;2015;48.670;9.060;2023-06-04T13:12:03;8.55;;;6.10;;
4001;SDS011;2015;48.670;9.060;2023-06-04T13:14:36;6.23;;;5.77;;
4001;SDS011;2015;48.670;9.060;2023-06-04T13:17:07;7.07;;;6.57;;
4001;SDS011;2015;48.670;9.060;2023-06-04T13:19:53;7.43;;;6.73;;
4001;SDS011;2015;48.670;9.060;2023-06-04T13:22:24;8.20;;;7.40;;
4001;SDS011;2015;48.670;9.060;2023-06-04T13:24:56;8.33;;;7.60;;
4001;SDS011;2015;48.670;9.060;2023-06-04T13:27:28;7.00;;;6.30;;
4001;SDS011;2015;48.670;9.060;2023-06-04T13:30:00;7.30;;;6.57;;
4001;SDS011;2015;48.670;9.060;2023-06-04T13:32:32;9.77;;;7.60;;
4001;SDS011;2015;48.670;9.060;2023-06-04T13:35:04;8.40;;;7.60;;
4001;SDS011;2015;48.670;9.060;2023-06-04T13:37:36;6.57;;;5.83;;
4001;SDS011;2015;48.670;9.060;2023-06-04T13:40:09;9.53;;;6.70;;
4001;SDS011;2015;48.670;9.060;2023-06-04T13:42:41;7.00;;;6.40;;
4001;SDS011;2015;48.670;9.060;2023-06-04T13:45:16;8.27;;;6.90;;
4001;SDS011;2015;48.670;9.060;2023-06-04T13:47:48;8.00;;;7.20;;
4001;SDS011;2015;48.670;9.060;2023-06-04T13:50:20;6.73;;;6.23;;
4001;SDS011;2015;48.670;9.060;2023-06-04T13:52:52;7.53;;;6.90;;
4001;SDS011;2015;48.670;9.060;2023-06-04T13:55:24;7.87;;;7.20;;
4001;SDS011;2015;48.670;9.060;2023-06-04T13:57:56;8.67;;;7.03;;
4001;SDS011;2015;48.670;9.060;2023-06-04T14:00:27;7.33;;;6.73;;
4001;SDS011;2015;48.670;9.060;2023-06-04T14:03:01;6.40;;;5.87;;
4001;SDS011;2015;48.670;9.060;2023-06-04T14:05:33;7.50;;;6.70;;
4001;SDS011;2015;48.670;9.060;2023-06-04T14:08:04;6.67;;;6.13;;
4001;SDS011;2015;48.670;9.060;2023-06-04T14:10:36;6.50;;;6.00;;
4001;SDS011;2015;48.670;9.060;2023-06-04T14:13:11;7.83;;;6.93;;
4001;SDS011;2015;48.670;9.060;2023-06-04T14:15:43;7.47;;;6.88;;
4001;SDS011;2015;48.670;9.060;2023-06-04T14:18:15;7.70;;;7.00;;
4001;SDS011;2015;48.670;9.060;2023-06-04T14:20:47;6.73;;;6.27;;
4001;SDS011;2015;48.670;9.060;2023-06-04T14:23:19;7.53;;;6.80;;
4001;SDS011;2015;48.670;9.060;2023-06-04T14:25:51;6.47;;;5.97;;
4001;SDS011;2015;48.670;9.060;2023-06-04T14:28:23;7.10;;;6.40;;
4001;SDS011;2015;48.670;9.060;2023-06-04T14:30:55;7.32;;;6.63;;
4001;SDS011;2015;48.670;9.060;2023-06-04T14:33:28;7.40;;;6.80;;
4001;SDS011;2015;48.670;9.060;2023-06-04T14:36:00;6.60;;;6.10;;
4001;SDS011;2015;48.670;9.060;2023-06-04T14:38:32;7.10;;;5.75;;
4001;SDS011;2015;48.670;9.060;2023-06-04T14:41:04;6.70;;;5.93;;
4001;SDS011;2015;48.670;9.060;2023-06-04T14:43:36;6.10;;;5.60;;
4001;SDS011;2015;48.670;9.060;2023-06-04T14:46:08;5.87;;;5.37;;
4001;SDS011;2015;48.670;9.060;2023-06-04T14:48:40;6.30;;;5.80;;
4001;SDS011;2015;48.670;9.060;2023-06-04T14:51:12;6.43;;;5.93;;
4001;SDS011;2015;48.670;9.060;2023-06-04T14:53:44;5.80;;;5.40;;
4001;SDS011;2015;48.670;9.060;2023-06-04T14:56:16;6.27;;;5.77;;
4001;SDS011;2015;48.670;9.060;2023-06-04T14:58:49;6.03;;;5.53;;
4001;SDS011;2015;48.670;9.060;2023-06-04T15:01:20;5.93;;;5.53;;
4001;SDS011;2015;48.670;9.060;2023-06-04T15:03:55;6.90;;;6.30;;
4001;SDS011;2015;48.670;9.060;2023-06-04T15:06:27;5.67;;;5.30;;
4001;SDS011;2015;48.670;9.060;2023-06-04T15:08:58;6.03;;;5.43;;
4001;SDS011;2015;48.670;9.060;2023-06-04T15:11:30;8.90;;;6.10;;
4001;SDS011;2015;48.670;9.060;2023-06-04T15:14:02;5.50;;;5.00;;
4001;SDS011;2015;48.670;9.060;2023-06-04T15:16:34;6.37;;;6.03;;
4001;SDS011;2015;48.670;9.060;2023-06-04T15:19:06;5.72;;;5.13;;
4001;SDS011;2015;48.670;9.060;2023-06-04T15:21:39;5.57;;;5.07;;
4001;SDS011;2015;48.670;9.060;2023-06-04T15:24:11;5.67;;;5.17;;
4001;SDS011;2015;48.670;9.060;2023-06-04T15:26:43;5.73;;;5.33;;
4001;SDS011;2015;48.670;9.060;2023-06-04T15:29:16;4.90;;;4.50;;
4001;SDS011;2015;48.670;9.060;2023-06-04T15:31:48;6.10;;;5.70;;
4001;SDS011;2015;48.670;9.060;2023-06-04T15:34:21;6.03;;;5.53;;
4001;SDS011;2015;48.670;9.060;2023-06-04T15:36:53;6.37;;;5.87;;
4001;SDS011;2015;48.670;9.060;2023-06-04T15:39:24;5.60;;;5.20;;
4001;SDS011;2015;48.670;9.060;2023-06-04T15:41:56;5.60;;;5.10;;
4001;SDS011;2015;48.670;9.060;2023-06-04T15:44:28;6.73;;;5.00;;
4001;SDS011;2015;48.670;9.060;2023-06-04T15:47:00;4.90;;;4.60;;
4001;SDS011;2015;48.670;9.060;2023-06-04T15:49:31;7.27;;;5.10;;
4001;SDS011;2015;48.670;9.060;2023-06-04T15:52:03;5.87;;;5.40;;